Time;durP1;ratioP1;P1;durP2;ratioP2;P2;SDS_P1;SDS_P2;PMS_P1;PMS_P2;Temp;Humidity;BMP_temperature;BMP_pressure;BME280_temperature;BME280_humidity;BME280_pressure;Samples;Min_cycle;Max_cycle;Signal;HPM_P1;HPM_P2
2020/12/04 00:01:36;;;;;;;;;0.00;0.00;;;;;;;;5002553;28;10736;-81
2020/12/04 00:04:03;;;;;;;;;0.00;0.00;;;;;;;;5004703;28;10661;-80
2020/12/04 00:06:33;;;;;;;;;0.00;0.00;;;;;;;;5003465;28;10694;-81
2020/12/04 00:09:03;;;;;;;;;0.00;0.00;;;;;;;;5003189;28;10707;-80
2020/12/04 00:11:38;;;;;;;;;0.00;0.00;;;;;;;;5001861;28;10645;-80
2020/12/04 00:14:08;;;;;;;;;0.25;0.00;;;;;;;;5004092;28;10610;-81
2020/12/04 00:16:35;;;;;;;;;0.00;0.00;;;;;;;;5003114;28;11487;-80
2020/12/04 00:19:02;;;;;;;;;0.00;0.00;;;;;;;;5000810;28;10822;-80
2020/12/04 00:21:29;;;;;;;;;0.00;0.00;;;;;;;;5003474;28;10641;-79
2020/12/04 00:23:56;;;;;;;;;0.00;0.00;;;;;;;;5002605;28;10563;-79
2020/12/04 00:26:23;;;;;;;;;0.00;0.00;;;;;;;;5003561;28;10459;-78
2020/12/04 00:28:50;;;;;;;;;0.00;0.00;;;;;;;;5004229;28;10513;-78
2020/12/04 00:31:18;;;;;;;;;0.00;0.00;;;;;;;;5001023;28;10640;-78
2020/12/04 00:33:45;;;;;;;;;0.00;0.00;;;;;;;;5004078;28;10471;-77
2020/12/04 00:36:12;;;;;;;;;0.00;0.00;;;;;;;;5001827;28;10538;-77
2020/12/04 00:38:39;;;;;;;;;0.00;0.00;;;;;;;;5003218;28;10501;-78
2020/12/04 00:41:09;;;;;;;;;0.00;0.00;;;;;;;;5001871;28;10637;-78
2020/12/04 00:43:36;;;;;;;;;0.00;0.00;;;;;;;;5002525;28;10542;-77
2020/12/04 00:46:02;;;;;;;;;1.00;0.00;;;;;;;;5001894;28;10695;-77
2020/12/04 00:48:30;;;;;;;;;0.00;0.00;;;;;;;;5002874;28;10631;-77
2020/12/04 00:50:57;;;;;;;;;1.00;0.00;;;;;;;;5002429;28;10550;-77
2020/12/04 00:53:24;;;;;;;;;0.00;0.00;;;;;;;;5001196;28;10461;-77
2020/12/04 00:55:51;;;;;;;;;0.00;0.00;;;;;;;;5002827;28;10622;-78
2020/12/04 00:58:18;;;;;;;;;0.00;0.00;;;;;;;;5001279;28;10480;-78
2020/12/04 01:00:45;;;;;;;;;0.00;0.00;;;;;;;;5002620;28;10682;-77
2020/12/04 01:03:12;;;;;;;;;0.00;0.00;;;;;;;;4999933;28;10514;-77
2020/12/04 01:05:40;;;;;;;;;0.00;0.00;;;;;;;;5002268;28;10548;-78
2020/12/04 01:08:07;;;;;;;;;0.00;0.00;;;;;;;;5001673;28;10630;-79
2020/12/04 01:10:34;;;;;;;;;0.00;0.00;;;;;;;;5001654;28;10627;-79
2020/12/04 01:13:01;;;;;;;;;0.00;0.00;;;;;;;;5002428;28;10519;-78
2020/12/04 01:15:27;;;;;;;;;0.00;0.00;;;;;;;;5001383;28;11138;-78
2020/12/04 01:17:54;;;;;;;;;0.00;0.00;;;;;;;;5002438;28;10634;-77
2020/12/04 01:20:21;;;;;;;;;0.00;0.00;;;;;;;;5001321;28;10692;-78
2020/12/04 01:22:49;;;;;;;;;0.00;0.00;;;;;;;;5002657;28;10689;-78
2020/12/04 01:25:16;;;;;;;;;0.00;0.00;;;;;;;;5000008;28;10727;-78
2020/12/04 01:27:42;;;;;;;;;0.00;0.00;;;;;;;;5001983;28;10714;-78
2020/12/04 01:30:09;;;;;;;;;0.00;0.00;;;;;;;;4999983;28;10793;-78
2020/12/04 01:32:36;;;;;;;;;0.00;0.00;;;;;;;;5001280;28;10867;-78
2020/12/04 01:35:03;;;;;;;;;0.00;0.00;;;;;;;;5001520;28;10720;-78
2020/12/04 01:37:32;;;;;;;;;0.00;0.00;;;;;;;;5000052;28;10720;-78
2020/12/04 01:40:00;;;;;;;;;1.00;0.00;;;;;;;;5002739;28;10923;-78
2020/12/04 01:42:26;;;;;;;;;0.00;0.00;;;;;;;;5000526;28;10813;-77
2020/12/04 01:44:54;;;;;;;;;0.00;0.00;;;;;;;;5002035;28;10894;-75
2020/12/04 01:47:21;;;;;;;;;0.00;0.00;;;;;;;;5001220;28;10758;-76
2020/12/04 01:49:48;;;;;;;;;0.00;0.00;;;;;;;;5001422;28;10897;-77
2020/12/04 01:52:15;;;;;;;;;0.00;0.00;;;;;;;;5001907;28;10880;-78
2020/12/04 01:54:42;;;;;;;;;0.00;0.00;;;;;;;;4998825;28;11003;-76
2020/12/04 01:57:10;;;;;;;;;2.00;0.00;;;;;;;;5001773;28;11072;-78
2020/12/04 01:59:37;;;;;;;;;1.00;0.00;;;;;;;;5000557;28;11008;-76
2020/12/04 02:02:10;;;;;;;;;0.00;0.00;;;;;;;;4997559;28;10927;-76
2020/12/04 02:04:36;;;;;;;;;0.00;0.00;;;;;;;;4998019;28;10939;-77
2020/12/04 02:07:07;;;;;;;;;0.00;0.00;;;;;;;;5000924;28;11166;-76
2020/12/04 02:09:38;;;;;;;;;0.00;0.00;;;;;;;;5001614;28;11205;-77
2020/12/04 02:12:06;;;;;;;;;0.00;0.00;;;;;;;;4999940;28;11000;-77
2020/12/04 02:14:34;;;;;;;;;0.00;0.00;;;;;;;;5002196;28;11130;-78
2020/12/04 02:17:02;;;;;;;;;0.00;0.00;;;;;;;;4999097;28;10911;-77
2020/12/04 02:19:29;;;;;;;;;0.00;0.00;;;;;;;;5001150;28;10908;-77
2020/12/04 02:21:58;;;;;;;;;0.00;0.00;;;;;;;;4998532;28;11746;-76
2020/12/04 02:24:26;;;;;;;;;0.00;0.00;;;;;;;;5000734;28;10903;-77
2020/12/04 02:26:54;;;;;;;;;0.00;0.00;;;;;;;;4999674;28;10942;-77
2020/12/04 02:29:21;;;;;;;;;0.00;0.00;;;;;;;;4998397;28;11073;-77
2020/12/04 02:31:48;;;;;;;;;0.00;0.00;;;;;;;;5001628;28;10994;-76
2020/12/04 02:34:15;;;;;;;;;0.75;0.00;;;;;;;;5001298;28;11876;-76
2020/12/04 02:36:42;;;;;;;;;0.00;0.00;;;;;;;;5001445;28;10913;-77
2020/12/04 02:39:10;;;;;;;;;1.00;0.00;;;;;;;;5000436;28;11034;-77
2020/12/04 02:41:37;;;;;;;;;0.00;0.00;;;;;;;;5000030;28;11061;-76
2020/12/04 02:44:04;;;;;;;;;0.00;0.00;;;;;;;;5004813;28;11013;-75
2020/12/04 02:46:31;;;;;;;;;0.00;0.00;;;;;;;;5004347;28;11070;-75
2020/12/04 02:48:58;;;;;;;;;0.00;0.00;;;;;;;;5005611;28;11057;-77
2020/12/04 02:51:25;;;;;;;;;0.00;0.00;;;;;;;;5001713;28;11783;-75
2020/12/04 02:53:52;;;;;;;;;0.00;0.00;;;;;;;;5003169;28;11097;-75
2020/12/04 02:56:20;;;;;;;;;0.00;0.00;;;;;;;;5004437;28;11074;-75
2020/12/04 02:58:47;;;;;;;;;0.00;0.00;;;;;;;;5005661;28;11183;-75
2020/12/04 03:01:13;;;;;;;;;0.00;0.00;;;;;;;;5004255;28;11161;-76
2020/12/04 03:03:40;;;;;;;;;0.00;0.00;;;;;;;;5004846;28;11052;-76
2020/12/04 03:06:07;;;;;;;;;0.00;0.00;;;;;;;;5004667;28;11194;-77
2020/12/04 03:08:33;;;;;;;;;0.00;0.00;;;;;;;;5004331;28;12056;-75
2020/12/04 03:11:01;;;;;;;;;0.00;0.00;;;;;;;;5005200;28;11140;-74
2020/12/04 03:13:29;;;;;;;;;0.00;0.00;;;;;;;;5001890;28;11074;-75
2020/12/04 03:15:56;;;;;;;;;0.00;0.00;;;;;;;;5004640;28;11160;-76
2020/12/04 03:18:23;;;;;;;;;0.00;0.00;;;;;;;;5002191;28;11267;-76
2020/12/04 03:20:49;;;;;;;;;0.00;0.00;;;;;;;;5002300;28;11231;-76
2020/12/04 03:23:16;;;;;;;;;0.00;0.00;;;;;;;;5004195;28;11190;-77
2020/12/04 03:25:43;;;;;;;;;0.00;0.00;;;;;;;;5003210;28;11196;-75
2020/12/04 03:28:10;;;;;;;;;0.00;0.00;;;;;;;;5004433;28;11516;-76
2020/12/04 03:30:38;;;;;;;;;0.00;0.00;;;;;;;;5002365;28;11875;-77
2020/12/04 03:33:05;;;;;;;;;0.00;0.00;;;;;;;;5004067;28;11146;-76
2020/12/04 03:35:32;;;;;;;;;0.00;0.00;;;;;;;;5001810;28;11471;-76
2020/12/04 03:37:59;;;;;;;;;0.00;0.00;;;;;;;;5005644;28;12248;-76
2020/12/04 03:40:25;;;;;;;;;0.00;0.00;;;;;;;;5004551;28;11491;-76
2020/12/04 03:42:52;;;;;;;;;0.50;0.00;;;;;;;;5003801;28;11508;-77
2020/12/04 03:45:19;;;;;;;;;0.00;0.00;;;;;;;;5003260;28;11450;-77
2020/12/04 03:47:47;;;;;;;;;0.00;0.00;;;;;;;;5001456;28;11547;-78
2020/12/04 03:50:14;;;;;;;;;0.00;0.00;;;;;;;;5003241;28;11562;-78
2020/12/04 03:52:42;;;;;;;;;0.25;0.00;;;;;;;;4998917;28;11592;-78
2020/12/04 03:55:09;;;;;;;;;0.00;0.00;;;;;;;;5003940;28;11536;-78
2020/12/04 03:57:36;;;;;;;;;0.00;0.00;;;;;;;;5002340;28;11518;-77
2020/12/04 04:00:07;;;;;;;;;0.00;0.00;;;;;;;;5003006;28;11492;-76
2020/12/04 04:02:34;;;;;;;;;0.00;0.00;;;;;;;;5003376;28;11493;-75
2020/12/04 04:05:02;;;;;;;;;0.00;0.00;;;;;;;;5003425;28;11487;-76
2020/12/04 04:07:29;;;;;;;;;0.00;0.00;;;;;;;;5002996;28;11472;-76
2020/12/04 04:09:56;;;;;;;;;0.00;0.00;;;;;;;;5003098;28;11515;-76
2020/12/04 04:12:23;;;;;;;;;0.00;0.00;;;;;;;;5003822;28;11532;-77
2020/12/04 04:14:50;;;;;;;;;0.00;0.00;;;;;;;;5001863;28;11476;-77
2020/12/04 04:17:17;;;;;;;;;0.00;0.00;;;;;;;;5003527;28;11459;-76
2020/12/04 04:19:44;;;;;;;;;0.00;0.00;;;;;;;;5001640;28;11497;-75
2020/12/04 04:22:12;;;;;;;;;0.00;0.00;;;;;;;;5001911;28;11459;-76
2020/12/04 04:24:39;;;;;;;;;0.00;0.00;;;;;;;;5003791;28;11513;-76
2020/12/04 04:27:06;;;;;;;;;1.00;0.00;;;;;;;;5001122;28;11455;-77
2020/12/04 04:29:33;;;;;;;;;0.00;0.00;;;;;;;;5005124;28;11481;-77
2020/12/04 04:31:59;;;;;;;;;0.00;0.00;;;;;;;;4999963;28;11497;-76
2020/12/04 04:34:27;;;;;;;;;0.00;0.00;;;;;;;;5003059;28;11500;-76
2020/12/04 04:36:54;;;;;;;;;0.00;0.00;;;;;;;;5001644;28;11578;-76
2020/12/04 04:39:25;;;;;;;;;0.00;0.00;;;;;;;;5004857;28;11475;-75
2020/12/04 04:41:56;;;;;;;;;1.00;0.00;;;;;;;;5001736;28;11446;-75
2020/12/04 04:44:23;;;;;;;;;0.00;0.00;;;;;;;;5001083;28;11480;-76
2020/12/04 04:47:03;;;;;;;;;0.00;0.00;;;;;;;;5002931;28;11451;-76
2020/12/04 04:49:35;;;;;;;;;0.00;0.00;;;;;;;;5000331;28;11478;-75
2020/12/04 04:52:03;;;;;;;;;0.00;0.00;;;;;;;;5002164;28;11485;-75
2020/12/04 04:54:31;;;;;;;;;0.00;0.00;;;;;;;;5002938;28;11494;-77
2020/12/04 04:56:58;;;;;;;;;0.00;0.00;;;;;;;;5002258;28;11579;-76
2020/12/04 04:59:25;;;;;;;;;0.00;0.00;;;;;;;;5000901;28;11487;-76
2020/12/04 05:01:52;;;;;;;;;0.00;0.00;;;;;;;;5001152;28;12085;-76
2020/12/04 05:04:20;;;;;;;;;0.00;0.00;;;;;;;;5002313;28;11497;-76
2020/12/04 05:06:47;;;;;;;;;0.00;0.00;;;;;;;;5000818;28;12307;-76
2020/12/04 05:09:25;;;;;;;;;0.00;0.00;;;;;;;;4999767;28;11521;-78
2020/12/04 05:11:59;;;;;;;;;0.75;0.00;;;;;;;;5000124;28;11485;-76
2020/12/04 05:14:27;;;;;;;;;0.00;0.00;;;;;;;;5000752;28;11489;-75
2020/12/04 05:16:57;;;;;;;;;0.00;0.00;;;;;;;;5006851;28;11500;-78
2020/12/04 05:19:31;;;;;;;;;0.00;0.00;;;;;;;;5000649;28;11472;-76
2020/12/04 05:22:08;;;;;;;;;0.00;0.00;;;;;;;;5002544;28;11467;-76
2020/12/04 05:24:39;;;;;;;;;0.00;0.00;;;;;;;;5000612;28;11483;-76
2020/12/04 05:27:27;;;;;;;;;0.00;0.00;;;;;;;;5000383;28;11536;-76
2020/12/04 05:29:55;;;;;;;;;0.00;0.00;;;;;;;;5000313;28;11628;-75
2020/12/04 05:32:23;;;;;;;;;0.00;0.00;;;;;;;;4997812;28;11452;-77
2020/12/04 05:34:50;;;;;;;;;0.00;0.00;;;;;;;;5000995;28;11570;-76
2020/12/04 05:37:19;;;;;;;;;0.00;0.00;;;;;;;;5000476;28;11584;-77
2020/12/04 05:39:49;;;;;;;;;0.00;0.00;;;;;;;;5002846;28;11470;-76
2020/12/04 05:42:32;;;;;;;;;0.00;0.00;;;;;;;;4999489;28;11438;-77
2020/12/04 05:44:59;;;;;;;;;0.00;0.00;;;;;;;;5002017;28;11473;-77
2020/12/04 05:47:37;;;;;;;;;0.00;0.00;;;;;;;;4994888;28;11487;-76
2020/12/04 05:50:05;;;;;;;;;0.00;0.00;;;;;;;;5000910;28;11492;-77
2020/12/04 05:52:35;;;;;;;;;0.00;0.00;;;;;;;;5003087;28;11559;-76
2020/12/04 05:55:03;;;;;;;;;0.00;0.00;;;;;;;;5002961;28;11480;-76
2020/12/04 05:57:43;;;;;;;;;0.00;0.00;;;;;;;;5002802;28;11516;-83
2020/12/04 06:00:10;;;;;;;;;0.00;0.00;;;;;;;;5002343;28;11501;-76
2020/12/04 06:02:39;;;;;;;;;0.00;0.00;;;;;;;;5004133;28;11479;-75
2020/12/04 06:05:06;;;;;;;;;0.00;0.00;;;;;;;;5003371;28;11497;-76
2020/12/04 06:07:33;;;;;;;;;0.00;0.00;;;;;;;;5002900;28;11480;-75
2020/12/04 06:10:00;;;;;;;;;0.00;0.00;;;;;;;;5003649;28;11576;-76
2020/12/04 06:12:27;;;;;;;;;0.00;0.00;;;;;;;;5000435;28;11493;-76
2020/12/04 06:14:55;;;;;;;;;0.00;0.00;;;;;;;;5001997;28;11551;-75
2020/12/04 06:17:22;;;;;;;;;0.00;0.00;;;;;;;;4994341;28;12293;-79
2020/12/04 06:19:48;;;;;;;;;0.00;0.00;;;;;;;;5002770;28;11480;-78
2020/12/04 06:22:17;;;;;;;;;0.00;0.00;;;;;;;;5002304;28;11547;-79
2020/12/04 06:25:03;;;;;;;;;0.00;0.00;;;;;;;;5003027;28;11476;-79
2020/12/04 06:27:39;;;;;;;;;0.00;0.00;;;;;;;;4986308;28;11452;-82
2020/12/04 06:30:08;;;;;;;;;0.00;0.00;;;;;;;;5001025;28;11499;-81
2020/12/04 06:32:36;;;;;;;;;0.00;0.00;;;;;;;;5003486;28;12304;-77
2020/12/04 06:35:03;;;;;;;;;0.00;0.00;;;;;;;;5001185;28;11544;-85
2020/12/04 06:37:35;;;;;;;;;0.00;0.00;;;;;;;;5003655;28;11492;-78
2020/12/04 06:40:24;;;;;;;;;0.00;0.00;;;;;;;;5003947;28;11476;-79
2020/12/04 06:42:51;;;;;;;;;0.00;0.00;;;;;;;;5001534;28;11496;-81
2020/12/04 06:45:19;;;;;;;;;0.00;0.00;;;;;;;;5004001;28;11477;-81
2020/12/04 06:48:09;;;;;;;;;1.00;0.00;;;;;;;;4999664;28;12385;-78
2020/12/04 06:50:40;;;;;;;;;0.00;0.00;;;;;;;;5003606;28;11527;-80
2020/12/04 06:53:09;;;;;;;;;0.00;0.00;;;;;;;;5002145;28;11448;-79
2020/12/04 06:55:36;;;;;;;;;0.00;0.00;;;;;;;;5000213;28;11642;-78
2020/12/04 06:58:03;;;;;;;;;0.00;0.00;;;;;;;;5000912;28;11558;-80
2020/12/04 07:00:31;;;;;;;;;0.00;0.00;;;;;;;;5003683;28;11464;-81
2020/12/04 07:02:59;;;;;;;;;0.00;0.00;;;;;;;;5002219;28;11550;-81
2020/12/04 07:05:27;;;;;;;;;0.00;0.00;;;;;;;;5000923;28;11454;-78
2020/12/04 07:08:04;;;;;;;;;0.00;0.00;;;;;;;;5002245;28;11495;-76
2020/12/04 07:10:35;;;;;;;;;0.00;0.00;;;;;;;;5000882;28;12034;-72
2020/12/04 07:13:03;;;;;;;;;0.00;0.00;;;;;;;;5000623;28;12397;-75
2020/12/04 07:15:32;;;;;;;;;0.00;0.00;;;;;;;;5001578;28;11500;-75
2020/12/04 07:17:59;;;;;;;;;0.00;0.00;;;;;;;;4998950;28;12263;-72
2020/12/04 07:20:34;;;;;;;;;0.00;0.00;;;;;;;;5000732;28;11582;-75
2020/12/04 07:23:01;;;;;;;;;0.00;0.00;;;;;;;;5000692;28;11470;-76
2020/12/04 07:25:28;;;;;;;;;0.00;0.00;;;;;;;;5001152;28;11478;-76
2020/12/04 07:27:55;;;;;;;;;1.00;0.00;;;;;;;;4997528;28;11596;-73
2020/12/04 07:30:25;;;;;;;;;0.00;0.00;;;;;;;;5002749;28;11429;-74
2020/12/04 07:32:53;;;;;;;;;0.00;0.00;;;;;;;;5001097;28;11612;-74
2020/12/04 07:35:21;;;;;;;;;0.00;0.00;;;;;;;;5000265;28;11485;-75
2020/12/04 07:37:48;;;;;;;;;0.00;0.00;;;;;;;;5001113;28;11468;-75
2020/12/04 07:40:17;;;;;;;;;0.00;0.00;;;;;;;;5001989;28;11504;-73
2020/12/04 07:42:44;;;;;;;;;0.00;0.00;;;;;;;;5002864;28;11511;-74
2020/12/04 07:45:26;;;;;;;;;0.00;0.00;;;;;;;;5001414;28;12225;-74
2020/12/04 07:47:54;;;;;;;;;0.00;0.00;;;;;;;;5001767;28;11599;-74
2020/12/04 07:50:21;;;;;;;;;0.00;0.00;;;;;;;;5002014;28;12474;-73
2020/12/04 07:52:51;;;;;;;;;0.00;0.00;;;;;;;;5005479;28;12299;-74
2020/12/04 07:55:19;;;;;;;;;0.00;0.00;;;;;;;;5005133;28;11514;-74
2020/12/04 07:57:52;;;;;;;;;1.00;1.00;;;;;;;;5003336;28;11482;-72
2020/12/04 08:00:19;;;;;;;;;0.00;0.00;;;;;;;;5003398;28;12299;-76
2020/12/04 08:02:46;;;;;;;;;0.00;0.00;;;;;;;;5004900;28;11546;-75
2020/12/04 08:05:20;;;;;;;;;0.00;0.00;;;;;;;;5004246;28;11541;-76
2020/12/04 08:07:52;;;;;;;;;0.00;0.00;;;;;;;;5004343;28;11478;-76
2020/12/04 08:10:19;;;;;;;;;0.00;0.00;;;;;;;;5004000;28;11532;-77
2020/12/04 08:12:49;;;;;;;;;0.00;0.00;;;;;;;;5003254;28;11493;-77
2020/12/04 08:15:19;;;;;;;;;0.00;0.00;;;;;;;;5000247;28;11585;-75
2020/12/04 08:17:46;;;;;;;;;0.00;0.00;;;;;;;;5002799;28;11497;-76
2020/12/04 08:20:18;;;;;;;;;0.00;0.00;;;;;;;;4998623;28;11481;-76
2020/12/04 08:22:50;;;;;;;;;0.00;0.00;;;;;;;;5002038;28;11655;-77
2020/12/04 08:25:23;;;;;;;;;0.00;0.00;;;;;;;;5002621;28;11569;-76
2020/12/04 08:27:50;;;;;;;;;0.00;0.00;;;;;;;;5002717;28;11490;-76
2020/12/04 08:30:19;;;;;;;;;0.00;0.00;;;;;;;;4999518;28;11510;-76
2020/12/04 08:32:49;;;;;;;;;0.00;0.00;;;;;;;;4998072;28;11467;-76
2020/12/04 08:35:19;;;;;;;;;0.00;0.00;;;;;;;;5002289;28;11476;-75
2020/12/04 08:37:46;;;;;;;;;2.00;0.00;;;;;;;;5002834;28;12206;-75
2020/12/04 08:40:25;;;;;;;;;0.00;0.00;;;;;;;;4999480;28;11523;-76
2020/12/04 08:42:56;;;;;;;;;1.25;0.00;;;;;;;;5004211;28;11578;-76
2020/12/04 08:45:29;;;;;;;;;0.00;0.00;;;;;;;;5002554;28;11518;-77
2020/12/04 08:48:06;;;;;;;;;0.00;0.00;;;;;;;;5002368;28;11530;-76
2020/12/04 08:50:38;;;;;;;;;2.00;0.00;;;;;;;;5001414;28;12680;-74
2020/12/04 08:53:09;;;;;;;;;0.00;0.00;;;;;;;;5003401;28;11518;-78
2020/12/04 08:55:37;;;;;;;;;0.00;0.00;;;;;;;;5001449;28;11504;-74
2020/12/04 08:58:04;;;;;;;;;0.00;0.00;;;;;;;;5001831;28;11479;-75
2020/12/04 09:00:32;;;;;;;;;0.00;0.00;;;;;;;;5001429;28;11426;-77
2020/12/04 09:03:00;;;;;;;;;1.00;0.00;;;;;;;;5001779;28;12255;-74
2020/12/04 09:05:27;;;;;;;;;1.75;0.00;;;;;;;;5003051;28;12303;-74
2020/12/04 09:07:54;;;;;;;;;0.00;0.00;;;;;;;;5001795;28;11498;-76
2020/12/04 09:10:22;;;;;;;;;2.00;0.50;;;;;;;;4999675;28;11565;-74
2020/12/04 09:12:49;;;;;;;;;0.00;0.00;;;;;;;;5001760;28;11486;-74
2020/12/04 09:15:19;;;;;;;;;0.00;0.00;;;;;;;;5001656;28;11555;-73
2020/12/04 09:17:47;;;;;;;;;0.00;0.00;;;;;;;;5001059;28;11476;-77
2020/12/04 09:20:15;;;;;;;;;0.00;0.00;;;;;;;;5001082;28;12214;-74
2020/12/04 09:22:45;;;;;;;;;0.00;0.00;;;;;;;;5002242;28;11494;-77
2020/12/04 09:25:14;;;;;;;;;0.00;0.00;;;;;;;;5000458;28;12237;-74
2020/12/04 09:27:42;;;;;;;;;0.00;0.00;;;;;;;;5002369;28;11632;-75
2020/12/04 09:30:15;;;;;;;;;1.00;0.00;;;;;;;;5002272;28;11503;-76
2020/12/04 09:32:43;;;;;;;;;0.00;0.00;;;;;;;;5003150;28;11495;-75
2020/12/04 09:35:14;;;;;;;;;0.00;0.00;;;;;;;;5003094;28;11644;-78
2020/12/04 09:37:42;;;;;;;;;0.00;0.00;;;;;;;;5004214;28;12361;-74
2020/12/04 09:40:11;;;;;;;;;0.75;0.00;;;;;;;;5002780;28;12255;-74
2020/12/04 09:42:38;;;;;;;;;0.00;0.00;;;;;;;;5003129;28;11509;-75
2020/12/04 09:45:06;;;;;;;;;0.00;0.00;;;;;;;;5004294;28;11495;-76
2020/12/04 09:47:35;;;;;;;;;0.00;0.00;;;;;;;;5002824;28;11538;-74
2020/12/04 09:50:03;;;;;;;;;0.00;0.00;;;;;;;;5002609;28;11525;-74
2020/12/04 09:52:30;;;;;;;;;0.25;0.25;;;;;;;;5003377;28;11517;-76
2020/12/04 09:54:58;;;;;;;;;0.00;0.00;;;;;;;;5004781;28;11622;-74
2020/12/04 09:57:25;;;;;;;;;1.00;0.00;;;;;;;;5001256;28;11538;-73
2020/12/04 09:59:52;;;;;;;;;0.00;0.00;;;;;;;;5003367;28;11587;-74
2020/12/04 10:02:20;;;;;;;;;0.00;0.00;;;;;;;;5002771;28;11430;-73
2020/12/04 10:04:48;;;;;;;;;1.00;0.00;;;;;;;;5003902;28;11478;-74
2020/12/04 10:07:17;;;;;;;;;0.00;0.00;;;;;;;;5004228;28;12244;-78
2020/12/04 10:09:44;;;;;;;;;0.00;0.00;;;;;;;;4999632;28;11489;-76
2020/12/04 10:12:11;;;;;;;;;0.00;0.00;;;;;;;;5002365;28;11573;-74
2020/12/04 10:14:40;;;;;;;;;4.00;0.00;;;;;;;;5002366;28;11600;-76
2020/12/04 10:17:08;;;;;;;;;0.00;0.00;;;;;;;;5003471;28;11461;-75
2020/12/04 10:19:35;;;;;;;;;0.00;0.00;;;;;;;;5004260;28;11457;-77
2020/12/04 10:22:04;;;;;;;;;0.00;0.00;;;;;;;;5003105;28;11475;-77
2020/12/04 10:24:31;;;;;;;;;1.00;0.00;;;;;;;;5003937;28;11503;-76
2020/12/04 10:26:59;;;;;;;;;1.50;0.00;;;;;;;;5002394;28;11629;-77
2020/12/04 10:29:26;;;;;;;;;0.00;0.00;;;;;;;;5006782;28;11482;-76
2020/12/04 10:31:53;;;;;;;;;0.00;0.00;;;;;;;;5001263;28;11436;-76
2020/12/04 10:34:20;;;;;;;;;0.00;0.00;;;;;;;;5003816;28;11519;-76
2020/12/04 10:36:47;;;;;;;;;0.00;0.00;;;;;;;;5005570;28;11633;-76
2020/12/04 10:39:15;;;;;;;;;0.00;0.00;;;;;;;;5003560;28;11504;-76
2020/12/04 10:41:43;;;;;;;;;0.00;0.00;;;;;;;;4999670;28;11627;-75
2020/12/04 10:44:11;;;;;;;;;0.00;0.00;;;;;;;;5000365;28;11531;-74
2020/12/04 10:46:39;;;;;;;;;0.00;0.00;;;;;;;;5004093;28;11533;-75
2020/12/04 10:49:06;;;;;;;;;0.00;0.00;;;;;;;;5002635;28;11501;-76
2020/12/04 10:51:33;;;;;;;;;0.00;0.00;;;;;;;;5010136;28;12029;-76
2020/12/04 10:54:00;;;;;;;;;0.00;0.00;;;;;;;;5003046;28;11496;-75
2020/12/04 10:56:28;;;;;;;;;2.00;0.00;;;;;;;;5003280;28;11483;-75
2020/12/04 10:58:55;;;;;;;;;0.00;0.00;;;;;;;;5002861;28;11164;-75
2020/12/04 11:01:28;;;;;;;;;0.00;0.00;;;;;;;;5002001;28;11047;-75
2020/12/04 11:06:40;;;;;;;;;0.00;0.00;;;;;;;;5002580;28;11156;-75
2020/12/04 11:09:07;;;;;;;;;0.00;0.00;;;;;;;;5007954;28;10926;-77
2020/12/04 11:11:35;;;;;;;;;0.00;0.00;;;;;;;;5013449;28;10906;-76
2020/12/04 11:14:02;;;;;;;;;0.00;0.00;;;;;;;;5010668;28;10783;-76
2020/12/04 11:16:28;;;;;;;;;0.00;0.00;;;;;;;;5006126;28;10753;-74
2020/12/04 11:18:59;;;;;;;;;0.00;0.00;;;;;;;;5003315;28;10750;-73
2020/12/04 11:21:30;;;;;;;;;0.00;0.00;;;;;;;;5007487;28;10573;-75
2020/12/04 11:24:01;;;;;;;;;0.00;0.00;;;;;;;;5005688;28;10486;-76
2020/12/04 11:26:28;;;;;;;;;0.00;0.00;;;;;;;;5006331;28;10557;-77
2020/12/04 11:28:56;;;;;;;;;0.00;0.00;;;;;;;;5006067;28;10609;-77
2020/12/04 11:31:23;;;;;;;;;0.00;0.00;;;;;;;;5005699;28;10662;-77
2020/12/04 11:33:50;;;;;;;;;0.00;0.00;;;;;;;;5006563;28;10795;-78
2020/12/04 11:36:17;;;;;;;;;0.00;0.00;;;;;;;;5005792;28;10792;-74
2020/12/04 11:38:44;;;;;;;;;1.75;0.00;;;;;;;;5007092;28;10879;-75
2020/12/04 11:41:11;;;;;;;;;0.00;0.00;;;;;;;;5005214;28;10858;-77
2020/12/04 11:43:39;;;;;;;;;0.00;0.00;;;;;;;;5004665;28;10773;-76
2020/12/04 11:46:06;;;;;;;;;0.00;0.00;;;;;;;;5003283;28;10902;-76
2020/12/04 11:48:34;;;;;;;;;0.00;0.00;;;;;;;;5003532;28;10976;-77
2020/12/04 11:51:01;;;;;;;;;0.00;0.00;;;;;;;;5003392;28;10983;-77
2020/12/04 11:53:28;;;;;;;;;1.50;0.00;;;;;;;;5001586;28;11898;-76
2020/12/04 11:55:55;;;;;;;;;0.00;0.00;;;;;;;;5002159;28;10929;-76
2020/12/04 11:58:22;;;;;;;;;0.25;0.00;;;;;;;;5000919;28;11378;-76
2020/12/04 12:00:50;;;;;;;;;0.00;0.00;;;;;;;;5002581;28;10834;-75
2020/12/04 12:03:19;;;;;;;;;0.50;0.00;;;;;;;;5001904;28;10842;-77
2020/12/04 12:05:46;;;;;;;;;0.00;0.00;;;;;;;;5003593;28;10874;-77
2020/12/04 12:08:13;;;;;;;;;0.00;0.00;;;;;;;;5003215;28;10752;-76
2020/12/04 12:10:40;;;;;;;;;0.00;0.00;;;;;;;;5002267;28;10890;-78
2020/12/04 12:13:07;;;;;;;;;0.00;0.00;;;;;;;;5003305;28;10704;-77
2020/12/04 12:15:34;;;;;;;;;0.00;0.00;;;;;;;;5000625;28;10617;-77
2020/12/04 12:18:01;;;;;;;;;1.00;0.00;;;;;;;;5000955;28;10608;-77
2020/12/04 12:20:28;;;;;;;;;0.00;0.00;;;;;;;;5000802;28;10561;-76
2020/12/04 12:22:55;;;;;;;;;0.00;0.00;;;;;;;;5002661;28;10620;-76
2020/12/04 12:25:22;;;;;;;;;0.00;0.00;;;;;;;;5002780;28;11298;-76
2020/12/04 12:27:49;;;;;;;;;0.00;0.00;;;;;;;;5002244;28;10693;-77
2020/12/04 12:30:16;;;;;;;;;0.00;0.00;;;;;;;;5002397;28;10566;-76
2020/12/04 12:32:43;;;;;;;;;0.00;0.00;;;;;;;;5000622;28;10500;-78
2020/12/04 12:35:12;;;;;;;;;0.00;0.00;;;;;;;;5003111;28;10651;-77
2020/12/04 12:37:42;;;;;;;;;0.75;0.00;;;;;;;;5001143;28;10398;-78
2020/12/04 12:40:10;;;;;;;;;0.00;0.00;;;;;;;;5002534;28;10548;-76
2020/12/04 12:42:37;;;;;;;;;2.00;1.00;;;;;;;;5002148;28;10503;-76
2020/12/04 12:45:04;;;;;;;;;0.00;0.00;;;;;;;;5003892;28;10506;-76
2020/12/04 12:47:31;;;;;;;;;0.50;0.00;;;;;;;;5003971;28;10447;-76
2020/12/04 12:49:59;;;;;;;;;1.75;0.25;;;;;;;;5002152;28;10562;-74
2020/12/04 12:52:26;;;;;;;;;0.00;0.00;;;;;;;;5003164;28;10424;-74
2020/12/04 12:54:53;;;;;;;;;0.50;0.50;;;;;;;;5003328;28;10487;-74
2020/12/04 12:57:20;;;;;;;;;0.00;0.00;;;;;;;;5002551;28;10480;-75
2020/12/04 12:59:47;;;;;;;;;0.25;0.25;;;;;;;;5001486;28;10519;-76
2020/12/04 13:02:14;;;;;;;;;2.00;1.00;;;;;;;;5000422;28;10640;-75
2020/12/04 13:04:41;;;;;;;;;1.00;0.00;;;;;;;;4999902;28;10732;-76
2020/12/04 13:07:08;;;;;;;;;0.00;0.00;;;;;;;;5002225;28;11449;-75
2020/12/04 13:09:35;;;;;;;;;0.00;0.00;;;;;;;;5003849;28;10702;-76
2020/12/04 13:12:03;;;;;;;;;0.00;0.00;;;;;;;;4998978;28;11440;-75
2020/12/04 13:14:30;;;;;;;;;0.00;0.00;;;;;;;;5000127;28;10856;-75
2020/12/04 13:16:57;;;;;;;;;0.00;0.00;;;;;;;;5001045;28;10728;-75
2020/12/04 13:19:24;;;;;;;;;0.00;0.00;;;;;;;;5002806;28;10777;-75
2020/12/04 13:21:55;;;;;;;;;0.00;0.00;;;;;;;;5001637;28;10777;-76
2020/12/04 13:24:23;;;;;;;;;0.00;0.00;;;;;;;;5001246;28;10665;-75
2020/12/04 13:26:50;;;;;;;;;0.00;0.00;;;;;;;;5001651;28;10556;-76
2020/12/04 13:29:18;;;;;;;;;0.00;0.00;;;;;;;;5001258;28;10816;-76
2020/12/04 13:31:45;;;;;;;;;0.25;0.25;;;;;;;;5002482;28;10920;-75
2020/12/04 13:34:11;;;;;;;;;0.00;0.00;;;;;;;;5001337;28;10575;-76
2020/12/04 13:36:38;;;;;;;;;0.00;0.00;;;;;;;;5002015;28;10524;-75
2020/12/04 13:39:05;;;;;;;;;0.00;0.00;;;;;;;;5001949;28;10504;-75
2020/12/04 13:41:32;;;;;;;;;0.00;0.00;;;;;;;;5002999;28;10627;-76
2020/12/04 13:43:59;;;;;;;;;0.00;0.00;;;;;;;;5001389;28;10632;-76
2020/12/04 13:46:27;;;;;;;;;0.00;0.00;;;;;;;;4996334;28;10393;-76
2020/12/04 13:48:54;;;;;;;;;1.75;0.00;;;;;;;;5001026;28;10315;-76
2020/12/04 13:51:21;;;;;;;;;0.00;0.00;;;;;;;;5001637;28;10474;-76
2020/12/04 13:53:48;;;;;;;;;0.00;0.00;;;;;;;;5002179;28;10340;-76
2020/12/04 13:56:15;;;;;;;;;0.00;0.00;;;;;;;;4999256;28;10988;-76
2020/12/04 13:58:42;;;;;;;;;1.75;0.00;;;;;;;;5001521;28;10440;-78
2020/12/04 14:01:09;;;;;;;;;0.00;0.00;;;;;;;;4998136;28;11153;-76
2020/12/04 14:03:37;;;;;;;;;0.00;0.00;;;;;;;;5000000;28;10471;-77
2020/12/04 14:06:04;;;;;;;;;1.00;1.00;;;;;;;;5002505;28;10508;-78
2020/12/04 14:08:31;;;;;;;;;1.25;1.00;;;;;;;;5000951;28;10714;-77
2020/12/04 14:10:58;;;;;;;;;1.00;1.00;;;;;;;;5001390;28;10777;-77
2020/12/04 14:13:24;;;;;;;;;1.00;1.00;;;;;;;;5000452;28;10785;-75
2020/12/04 14:15:51;;;;;;;;;1.00;1.00;;;;;;;;5001829;28;10775;-76
2020/12/04 14:18:18;;;;;;;;;1.00;1.00;;;;;;;;5000442;28;10633;-76
2020/12/04 14:20:46;;;;;;;;;1.75;1.00;;;;;;;;5001289;28;10759;-77
2020/12/04 14:23:13;;;;;;;;;1.00;1.00;;;;;;;;5000937;28;10677;-78
2020/12/04 14:25:40;;;;;;;;;3.00;2.00;;;;;;;;5001343;28;11440;-78
2020/12/04 14:28:07;;;;;;;;;1.00;1.00;;;;;;;;5003388;28;11024;-78
2020/12/04 14:30:34;;;;;;;;;1.00;1.00;;;;;;;;5000037;28;10855;-77
2020/12/04 14:33:01;;;;;;;;;0.75;0.75;;;;;;;;5000093;28;11000;-78
2020/12/04 14:35:28;;;;;;;;;2.00;0.00;;;;;;;;4999801;28;10930;-77
2020/12/04 14:37:57;;;;;;;;;0.50;0.50;;;;;;;;5001210;28;10864;-78
2020/12/04 14:40:28;;;;;;;;;0.50;0.50;;;;;;;;5004705;28;11005;-77
2020/12/04 14:42:58;;;;;;;;;0.00;0.00;;;;;;;;5002561;28;11019;-77
2020/12/04 14:45:25;;;;;;;;;1.00;1.00;;;;;;;;5005141;28;10919;-78
2020/12/04 14:47:53;;;;;;;;;0.00;0.00;;;;;;;;5002516;28;10980;-78
2020/12/04 14:50:20;;;;;;;;;0.50;0.50;;;;;;;;5004324;28;10929;-77
2020/12/04 14:52:46;;;;;;;;;1.00;1.00;;;;;;;;5004116;28;11188;-78